Time;durP1;ratioP1;P1;durP2;ratioP2;P2;SDS_P1;SDS_P2;PMS_P1;PMS_P2;Temp;Humidity;BMP_temperature;BMP_pressure;BME280_temperature;BME280_humidity;BME280_pressure;Samples;Min_cycle;Max_cycle;Signal;HPM_P1;HPM_P2
2022/05/28 00:01:33;;;;;;;11.50;3.47;;;11.90;88.10;;;;;;5013905;28;20168;-56
2022/05/28 00:03:59;;;;;;;13.27;4.00;;;11.90;87.90;;;;;;5015421;28;20034;-56
2022/05/28 00:06:28;;;;;;;9.88;3.20;;;11.70;88.70;;;;;;5013944;28;20096;-56
2022/05/28 00:08:56;;;;;;;9.23;3.33;;;11.70;88.40;;;;;;5014893;28;20490;-56
2022/05/28 00:11:28;;;;;;;10.93;3.20;;;11.70;88.60;;;;;;5015007;28;20044;-54
2022/05/28 00:13:54;;;;;;;10.10;3.65;;;11.80;88.60;;;;;;5014788;28;20397;-57
2022/05/28 00:16:20;;;;;;;9.73;3.38;;;11.70;88.50;;;;;;5013271;28;20034;-58
2022/05/28 00:18:46;;;;;;;9.02;3.15;;;11.80;88.50;;;;;;5014919;28;20038;-54
2022/05/28 00:21:14;;;;;;;10.75;3.42;;;11.70;88.70;;;;;;5013885;28;20496;-56
2022/05/28 00:23:40;;;;;;;9.07;3.30;;;11.70;88.90;;;;;;5014347;28;20034;-54
2022/05/28 00:26:06;;;;;;;8.05;3.40;;;11.70;88.80;;;;;;4996005;28;20042;-57
2022/05/28 00:28:33;;;;;;;13.25;4.47;;;11.80;88.80;;;;;;5013777;28;20041;-56
2022/05/28 00:30:59;;;;;;;13.88;3.90;;;11.70;89.00;;;;;;4996297;28;20045;-52
2022/05/28 00:33:25;;;;;;;8.40;3.28;;;11.80;88.90;;;;;;5014454;28;20061;-53
2022/05/28 00:35:51;;;;;;;12.27;3.72;;;11.80;89.10;;;;;;5000275;28;20037;-52
2022/05/28 00:38:17;;;;;;;10.82;3.33;;;11.70;89.40;;;;;;5020134;28;20109;-54
2022/05/28 00:40:51;;;;;;;13.45;3.40;;;11.80;89.50;;;;;;5020979;28;20056;-58
2022/05/28 00:43:17;;;;;;;13.65;3.65;;;11.80;89.60;;;;;;5014832;28;20045;-55
2022/05/28 00:45:46;;;;;;;12.55;3.38;;;11.80;89.70;;;;;;5013369;28;20030;-56
2022/05/28 00:48:15;;;;;;;11.30;3.55;;;11.80;89.90;;;;;;5013999;28;20038;-56
2022/05/28 00:50:41;;;;;;;9.68;2.95;;;11.70;90.10;;;;;;5014154;28;20489;-57
2022/05/28 00:53:07;;;;;;;8.75;3.47;;;11.70;90.20;;;;;;5014118;28;20141;-57
2022/05/28 00:55:34;;;;;;;10.00;3.33;;;11.70;90.30;;;;;;5012417;28;20030;-56
2022/05/28 00:58:03;;;;;;;9.30;3.58;;;11.70;90.20;;;;;;5010935;28;20030;-54
2022/05/28 01:00:29;;;;;;;9.25;3.33;;;11.70;90.30;;;;;;5012005;28;20504;-54
2022/05/28 01:03:07;;;;;;;8.60;3.58;;;11.80;90.40;;;;;;5012280;28;20078;-55
2022/05/28 01:06:14;;;;;;;9.23;3.58;;;11.80;90.30;;;;;;5011674;28;20550;-56
2022/05/28 01:09:08;;;;;;;10.65;3.67;;;11.70;90.60;;;;;;4992808;28;20489;-53
2022/05/28 01:11:44;;;;;;;8.57;3.10;;;11.70;90.60;;;;;;5008234;28;20046;-55
2022/05/28 01:14:18;;;;;;;13.13;3.20;;;11.60;90.80;;;;;;5013189;28;20461;-57
2022/05/28 01:16:50;;;;;;;11.02;3.63;;;11.60;90.80;;;;;;5012997;28;20053;-55
2022/05/28 01:19:41;;;;;;;9.85;3.78;;;11.60;90.90;;;;;;5013015;28;20386;-57
2022/05/28 01:22:39;;;;;;;8.73;3.30;;;11.60;91.10;;;;;;5013236;28;20037;-54
2022/05/28 01:25:23;;;;;;;12.80;3.65;;;11.60;91.10;;;;;;5014822;28;20030;-55
2022/05/28 01:27:57;;;;;;;9.65;3.28;;;11.60;91.20;;;;;;5014757;28;20442;-53
2022/05/28 01:30:23;;;;;;;11.68;3.30;;;11.50;91.40;;;;;;5013450;28;20077;-53
2022/05/28 01:32:57;;;;;;;12.13;3.35;;;11.60;91.30;;;;;;5109650;27;20392;-53
2022/05/28 01:35:45;;;;;;;11.05;3.50;;;11.70;91.30;;;;;;5108718;28;20440;-51
2022/05/28 01:38:32;;;;;;;13.63;3.58;;;11.50;91.60;;;;;;5109739;28;20024;-57
2022/05/28 01:41:17;;;;;;;8.93;3.25;;;11.60;91.50;;;;;;5101960;28;20077;-56
2022/05/28 01:44:03;;;;;;;12.50;3.50;;;11.50;91.60;;;;;;5125795;28;20092;-52
2022/05/28 01:46:48;;;;;;;12.20;3.90;;;11.40;91.70;;;;;;5104392;28;20050;-58
2022/05/28 01:49:34;;;;;;;10.98;3.90;;;11.40;92.00;;;;;;5107917;28;20051;-52
2022/05/28 01:52:21;;;;;;;7.15;2.90;;;11.40;92.00;;;;;;5108463;28;20547;-55
2022/05/28 01:55:07;;;;;;;9.32;2.83;;;11.40;92.00;;;;;;5097007;28;20441;-54
2022/05/28 01:57:51;;;;;;;9.93;3.45;;;11.40;92.10;;;;;;5100939;28;20070;-54
2022/05/28 02:00:36;;;;;;;9.18;3.63;;;11.50;92.20;;;;;;5103072;28;20074;-55
2022/05/28 02:03:20;;;;;;;9.27;3.15;;;11.50;92.10;;;;;;5091699;28;20046;-54
2022/05/28 02:06:04;;;;;;;9.00;3.15;;;11.40;92.20;;;;;;5109231;28;20533;-53
2022/05/28 02:08:49;;;;;;;10.93;3.13;;;11.30;92.40;;;;;;5103960;28;20109;-56
2022/05/28 02:12:10;;;;;;;9.60;3.42;;;11.30;92.50;;;;;;5088416;28;20032;-54
2022/05/28 02:15:21;;;;;;;12.93;4.05;;;11.40;92.60;;;;;;5089541;28;20088;-55
2022/05/28 02:18:21;;;;;;;10.60;3.45;;;11.40;92.60;;;;;;5073285;28;20098;-54
2022/05/28 02:21:20;;;;;;;10.73;3.25;;;11.30;92.90;;;;;;5092945;28;20418;-57
2022/05/28 02:24:12;;;;;;;11.32;3.45;;;11.30;93.20;;;;;;5108453;28;20042;-55
2022/05/28 02:27:08;;;;;;;11.10;3.53;;;11.30;93.10;;;;;;5098086;28;20536;-56
2022/05/28 02:29:52;;;;;;;15.18;3.90;;;11.40;93.10;;;;;;5095177;28;20126;-57
2022/05/28 02:32:36;;;;;;;8.95;2.80;;;11.30;93.20;;;;;;5105365;28;20089;-56
2022/05/28 02:35:20;;;;;;;7.50;2.78;;;11.40;93.30;;;;;;5089912;28;20044;-53
2022/05/28 02:38:04;;;;;;;9.95;2.90;;;11.40;93.30;;;;;;5103632;28;20416;-55
2022/05/28 02:40:48;;;;;;;6.87;3.10;;;11.40;93.60;;;;;;5109864;28;20097;-53
2022/05/28 02:43:33;;;;;;;7.28;2.83;;;11.40;93.50;;;;;;5098816;28;20273;-57
2022/05/28 02:46:17;;;;;;;6.13;2.95;;;11.40;93.70;;;;;;5096313;28;20031;-52
2022/05/28 02:49:01;;;;;;;7.43;2.77;;;11.50;93.60;;;;;;5095124;28;20043;-52
2022/05/28 02:51:45;;;;;;;10.38;3.08;;;11.50;93.50;;;;;;5096048;28;20118;-55
2022/05/28 02:54:30;;;;;;;9.20;3.13;;;11.50;93.50;;;;;;5096061;28;20043;-54
2022/05/28 02:57:14;;;;;;;11.68;3.13;;;11.60;93.50;;;;;;5087187;28;20111;-57
2022/05/28 02:59:58;;;;;;;10.90;3.53;;;11.50;93.90;;;;;;5075968;28;20094;-57
2022/05/28 03:02:43;;;;;;;8.43;2.80;;;11.50;94.10;;;;;;5075782;28;20040;-56
2022/05/28 03:05:28;;;;;;;11.18;3.53;;;11.50;94.20;;;;;;5078816;28;20108;-56
2022/05/28 03:08:11;;;;;;;9.35;3.35;;;11.50;94.30;;;;;;5094268;28;20046;-55
2022/05/28 03:10:55;;;;;;;12.65;3.63;;;11.50;94.60;;;;;;5088347;28;20411;-55
2022/05/28 03:13:41;;;;;;;8.63;2.97;;;11.40;94.80;;;;;;5093967;28;20044;-51
2022/05/28 03:16:25;;;;;;;;;;;11.50;94.70;;;;;;5094411;28;20345;-57
2022/05/28 03:19:09;;;;;;;10.40;2.95;;;11.60;94.30;;;;;;5074344;28;20015;-53
2022/05/28 03:21:54;;;;;;;10.50;3.22;;;11.70;94.70;;;;;;5091954;28;20058;-57
2022/05/28 03:24:38;;;;;;;7.22;3.10;;;11.50;95.90;;;;;;5083765;28;20128;-57
2022/05/28 03:27:22;;;;;;;7.73;3.30;;;11.30;97.10;;;;;;5073913;28;20039;-53
2022/05/28 03:30:07;;;;;;;8.10;3.15;;;11.30;97.00;;;;;;5089593;28;20281;-54
2022/05/28 03:32:51;;;;;;;8.02;3.00;;;11.30;97.30;;;;;;5094770;28;20115;-54
2022/05/28 03:35:37;;;;;;;7.35;2.95;;;11.30;97.50;;;;;;5092890;28;20043;-57
2022/05/28 03:38:22;;;;;;;5.75;2.47;;;11.30;97.60;;;;;;5096050;28;20433;-53
2022/05/28 03:41:06;;;;;;;4.20;2.60;;;11.20;98.30;;;;;;5075048;28;20086;-54
2022/05/28 03:43:50;;;;;;;6.93;3.30;;;11.30;97.60;;;;;;5092858;28;20086;-55
2022/05/28 03:46:35;;;;;;;5.68;3.10;;;11.30;97.70;;;;;;5094210;28;20394;-54
2022/05/28 03:49:29;;;;;;;6.40;2.58;;;11.30;97.90;;;;;;5088100;28;20047;-57
2022/05/28 03:52:16;;;;;;;7.80;2.40;;;11.40;98.10;;;;;;5074159;28;20032;-58
2022/05/28 03:55:00;;;;;;;7.90;2.40;;;11.50;98.00;;;;;;5072912;28;20089;-52
2022/05/28 03:57:46;;;;;;;6.33;2.47;;;11.50;98.80;;;;;;5074893;28;20416;-56
2022/05/28 04:00:31;;;;;;;6.28;2.42;;;11.30;99.70;;;;;;5074917;28;20032;-51
2022/05/28 04:03:15;;;;;;;4.22;2.20;;;11.20;99.90;;;;;;5083978;28;20042;-51
2022/05/28 04:05:59;;;;;;;6.13;2.67;;;10.80;99.90;;;;;;5096252;28;20082;-52
2022/05/28 04:08:43;;;;;;;3.80;2.23;;;10.60;99.90;;;;;;5084509;28;20051;-51
2022/05/28 04:11:27;;;;;;;4.73;2.13;;;10.60;99.90;;;;;;5075822;28;20036;-53
2022/05/28 04:14:11;;;;;;;5.65;2.47;;;10.40;99.90;;;;;;5075189;28;20102;-54
2022/05/28 04:16:55;;;;;;;5.75;2.20;;;10.40;99.90;;;;;;5073567;28;20121;-53
2022/05/28 04:19:40;;;;;;;4.80;2.03;;;10.40;99.90;;;;;;5074833;28;20399;-55
2022/05/28 04:22:25;;;;;;;3.93;2.17;;;10.30;99.90;;;;;;5093606;28;20047;-54
2022/05/28 04:25:09;;;;;;;5.70;2.53;;;10.20;99.90;;;;;;5087108;28;20047;-54
2022/05/28 04:27:53;;;;;;;4.30;2.25;;;10.10;99.90;;;;;;5072556;28;20036;-53
2022/05/28 04:30:37;;;;;;;4.40;1.90;;;10.10;99.90;;;;;;5085899;28;20119;-51
2022/05/28 04:33:21;;;;;;;8.88;3.60;;;10.10;99.90;;;;;;5075543;28;20032;-52
2022/05/28 04:36:05;;;;;;;8.02;3.70;;;10.20;99.90;;;;;;5092903;28;20553;-55
2022/05/28 04:38:49;;;;;;;4.43;2.50;;;10.20;99.90;;;;;;5085035;28;20093;-54
2022/05/28 04:41:33;;;;;;;7.05;2.35;;;10.50;99.90;;;;;;5073225;28;20031;-55
2022/05/28 04:44:17;;;;;;;5.35;2.60;;;10.50;99.90;;;;;;5113942;28;20119;-56
2022/05/28 04:47:02;;;;;;;5.00;2.75;;;10.70;99.90;;;;;;5092102;28;20517;-53
2022/05/28 04:49:46;;;;;;;5.72;3.00;;;10.80;99.90;;;;;;5073496;28;20461;-55
2022/05/28 04:52:30;;;;;;;3.08;2.20;;;10.80;99.90;;;;;;5077607;28;20034;-53
2022/05/28 04:55:15;;;;;;;4.72;2.20;;;10.90;99.90;;;;;;5092274;28;20035;-57
2022/05/28 04:57:59;;;;;;;5.20;2.75;;;11.00;99.90;;;;;;5073693;28;20024;-53
2022/05/28 05:00:45;;;;;;;3.87;2.13;;;11.00;99.90;;;;;;5075967;28;20538;-55
2022/05/28 05:03:32;;;;;;;3.65;2.05;;;10.90;99.90;;;;;;5087191;28;20091;-54
2022/05/28 05:06:16;;;;;;;5.28;2.42;;;11.00;99.90;;;;;;5074977;28;20044;-52
2022/05/28 05:09:01;;;;;;;7.28;2.60;;;11.00;99.90;;;;;;5080269;28;20157;-56
2022/05/28 05:11:45;;;;;;;5.15;2.45;;;10.90;99.90;;;;;;5092487;28;20452;-55
2022/05/28 05:14:29;;;;;;;6.40;2.17;;;10.70;99.90;;;;;;5086491;28;20058;-56
2022/05/28 05:17:13;;;;;;;5.77;2.47;;;10.70;99.90;;;;;;5090588;28;20514;-57
2022/05/28 05:19:57;;;;;;;5.40;2.38;;;10.60;99.90;;;;;;5079210;28;20055;-57
2022/05/28 05:22:41;;;;;;;4.85;2.28;;;10.60;99.90;;;;;;5073370;28;20040;-53
2022/05/28 05:25:26;;;;;;;5.40;2.13;;;10.60;99.90;;;;;;5085960;28;20043;-54
2022/05/28 05:28:11;;;;;;;5.28;2.45;;;10.70;99.90;;;;;;5089885;28;20173;-58
2022/05/28 05:30:55;;;;;;;3.97;2.00;;;10.70;99.90;;;;;;5084237;28;20047;-57
2022/05/28 05:33:40;;;;;;;7.53;2.45;;;10.80;99.90;;;;;;5085484;28;20039;-55
2022/05/28 05:36:24;;;;;;;4.95;2.22;;;10.80;99.90;;;;;;5090820;28;20077;-57
2022/05/28 05:39:08;;;;;;;5.38;2.50;;;10.90;99.90;;;;;;5076969;28;20703;-57
2022/05/28 05:41:53;;;;;;;9.10;2.42;;;11.00;99.90;;;;;;5080153;28;20140;-55
2022/05/28 05:44:38;;;;;;;8.20;2.45;;;11.10;99.90;;;;;;5093044;28;20047;-55
2022/05/28 05:47:22;;;;;;;;;;;10.90;99.90;;;;;;5088737;28;20710;-57
2022/05/28 05:50:07;;;;;;;3.58;2.13;;;11.10;99.90;;;;;;5089143;28;19965;-57
2022/05/28 05:52:51;;;;;;;6.45;2.40;;;11.30;99.90;;;;;;5085592;28;20039;-54
2022/05/28 05:55:35;;;;;;;4.22;2.30;;;11.40;99.90;;;;;;5083930;28;20081;-55
2022/05/28 05:58:19;;;;;;;8.48;2.95;;;11.50;99.20;;;;;;5079988;28;20031;-56
2022/05/28 06:01:04;;;;;;;6.80;2.43;;;11.50;99.00;;;;;;5080957;28;20089;-56
2022/05/28 06:03:48;;;;;;;4.15;2.55;;;11.70;98.90;;;;;;5082130;28;20044;-56
2022/05/28 06:06:32;;;;;;;5.50;2.63;;;11.80;98.70;;;;;;5071638;28;20522;-50
2022/05/28 06:09:17;;;;;;;5.50;2.33;;;11.80;98.00;;;;;;5089958;28;20140;-50
2022/05/28 06:12:02;;;;;;;7.32;3.08;;;11.80;98.30;;;;;;5078567;28;20059;-51
2022/05/28 06:14:45;;;;;;;9.77;3.50;;;12.00;97.60;;;;;;5071728;28;20035;-51
2022/05/28 06:17:30;;;;;;;6.63;3.03;;;12.00;96.70;;;;;;5085983;28;20089;-52
2022/05/28 06:20:14;;;;;;;13.07;3.08;;;12.00;96.60;;;;;;5077925;28;20036;-54
2022/05/28 06:22:58;;;;;;;7.73;3.23;;;12.10;96.00;;;;;;5075588;28;20055;-56
2022/05/28 06:25:42;;;;;;;9.10;2.63;;;12.20;95.40;;;;;;5075604;28;20262;-56
2022/05/28 06:28:27;;;;;;;9.90;2.72;;;12.20;94.80;;;;;;5077511;28;20161;-49
2022/05/28 06:31:13;;;;;;;6.63;2.88;;;12.40;94.30;;;;;;5094535;28;20043;-54
2022/05/28 06:33:57;;;;;;;9.40;3.10;;;12.30;94.20;;;;;;5093517;28;20034;-49
2022/05/28 06:36:41;;;;;;;10.00;3.07;;;12.20;93.50;;;;;;5086459;28;20407;-49
2022/05/28 06:39:25;;;;;;;9.43;3.33;;;12.00;93.40;;;;;;5075310;28;20034;-52
2022/05/28 06:42:09;;;;;;;5.17;2.43;;;12.10;93.30;;;;;;5078579;28;20082;-53
2022/05/28 06:44:55;;;;;;;10.40;2.85;;;11.90;93.20;;;;;;5082486;28;20270;-50
2022/05/28 06:47:46;;;;;;;6.55;2.70;;;12.00;93.10;;;;;;5092081;28;20486;-48
2022/05/28 06:53:40;;;;;;;9.98;2.80;;;12.00;92.70;;;;;;5082141;28;20030;-51
2022/05/28 06:56:24;;;;;;;6.78;2.53;;;12.10;92.50;;;;;;5092081;28;20038;-50
2022/05/28 06:59:09;;;;;;;6.72;2.75;;;12.10;92.00;;;;;;5075238;28;20412;-50
2022/05/28 07:01:56;;;;;;;;;;;12.20;92.30;;;;;;5076904;28;20039;-51
2022/05/28 07:04:40;;;;;;;7.57;2.85;;;12.50;91.90;;;;;;5087198;28;19923;-53
2022/05/28 07:07:24;;;;;;;7.38;2.50;;;12.50;91.80;;;;;;5094891;28;20392;-54
2022/05/28 07:10:11;;;;;;;7.53;2.70;;;12.60;91.70;;;;;;5079935;28;20120;-54
2022/05/28 07:12:56;;;;;;;6.50;2.67;;;12.60;91.50;;;;;;5074719;28;20157;-54
2022/05/28 07:15:41;;;;;;;7.38;3.17;;;12.50;90.80;;;;;;5086250;28;20475;-54
2022/05/28 07:18:25;;;;;;;5.72;2.42;;;12.50;90.90;;;;;;5075724;28;20105;-53
2022/05/28 07:21:11;;;;;;;10.60;3.07;;;12.40;91.40;;;;;;5086069;28;20058;-49
2022/05/28 07:23:55;;;;;;;8.48;2.95;;;12.60;91.70;;;;;;5086775;28;20071;-51
2022/05/28 07:26:40;;;;;;;5.45;2.45;;;12.80;91.70;;;;;;5084989;28;20039;-50
2022/05/28 07:29:25;;;;;;;6.35;2.55;;;12.80;91.90;;;;;;5075764;28;20506;-51
2022/05/28 07:32:09;;;;;;;8.15;3.08;;;12.90;91.30;;;;;;5082485;28;20073;-50
2022/05/28 07:34:53;;;;;;;4.70;2.60;;;12.90;91.30;;;;;;5079258;28;20043;-50
2022/05/28 07:37:37;;;;;;;5.40;2.17;;;12.90;91.70;;;;;;5074586;28;20043;-51
2022/05/28 07:40:21;;;;;;;6.30;3.40;;;13.00;91.00;;;;;;5087535;28;20307;-56
2022/05/28 07:43:05;;;;;;;5.03;2.20;;;12.80;90.40;;;;;;5104801;28;20162;-52
2022/05/28 07:45:49;;;;;;;6.27;2.63;;;12.80;90.70;;;;;;5104251;28;20084;-54
2022/05/28 07:48:33;;;;;;;7.38;2.90;;;12.70;90.50;;;;;;5092984;28;20035;-57
2022/05/28 07:51:18;;;;;;;7.60;2.53;;;12.70;90.50;;;;;;5094260;28;20495;-53
2022/05/28 07:54:03;;;;;;;8.80;2.58;;;12.70;90.70;;;;;;5093316;28;20027;-54
2022/05/28 07:56:47;;;;;;;5.90;2.38;;;12.80;90.40;;;;;;5094139;28;20089;-56
2022/05/28 07:59:31;;;;;;;5.97;2.87;;;12.90;90.10;;;;;;5094430;28;20069;-54
2022/05/28 08:02:15;;;;;;;4.97;2.55;;;13.00;90.20;;;;;;5094878;28;20273;-56
2022/05/28 08:04:59;;;;;;;7.17;3.60;;;13.00;90.10;;;;;;5093444;28;20583;-52
2022/05/28 08:07:43;;;;;;;7.90;2.78;;;13.00;90.00;;;;;;5093766;28;20273;-53
2022/05/28 08:10:27;;;;;;;11.75;2.60;;;13.10;90.10;;;;;;5094243;28;20031;-54
2022/05/28 08:13:15;;;;;;;5.47;2.30;;;13.00;90.00;;;;;;5094400;28;20043;-53
2022/05/28 08:16:01;;;;;;;7.45;3.08;;;13.30;89.50;;;;;;5093730;28;20070;-53
2022/05/28 08:18:45;;;;;;;;;;;13.40;88.60;;;;;;5094100;28;20466;-53
2022/05/28 08:24:32;;;;;;;6.30;2.90;;;13.50;87.90;;;;;;5097250;28;20039;-53
2022/05/28 08:27:16;;;;;;;6.60;2.90;;;13.50;87.40;;;;;;5094521;28;20407;-55
2022/05/28 08:30:00;;;;;;;6.03;2.55;;;13.40;88.20;;;;;;5094453;28;20066;-54
2022/05/28 08:32:44;;;;;;;6.88;2.70;;;13.70;89.00;;;;;;5094579;28;20089;-58
2022/05/28 08:35:28;;;;;;;8.68;2.65;;;13.70;87.30;;;;;;5093466;28;20085;-50
2022/05/28 08:38:15;;;;;;;8.63;2.50;;;13.40;87.00;;;;;;5092062;28;20027;-53
2022/05/28 08:41:06;;;;;;;6.28;2.38;;;13.20;87.00;;;;;;5093190;28;20315;-53
2022/05/28 08:43:53;;;;;;;6.63;2.30;;;13.10;87.60;;;;;;5109940;28;20091;-54
2022/05/28 08:46:37;;;;;;;6.45;2.38;;;13.10;88.10;;;;;;5096055;28;20043;-52
2022/05/28 08:49:26;;;;;;;6.43;2.53;;;13.20;88.50;;;;;;5092142;28;20494;-52
2022/05/28 08:52:18;;;;;;;7.20;2.42;;;13.40;88.20;;;;;;5092056;28;20514;-53
2022/05/28 08:55:07;;;;;;;6.60;2.20;;;13.40;88.20;;;;;;5092737;28;20030;-48
2022/05/28 08:58:00;;;;;;;8.45;2.40;;;13.50;87.00;;;;;;5093393;28;20023;-53
2022/05/28 09:01:02;;;;;;;5.55;2.33;;;13.40;88.00;;;;;;5093797;28;20085;-47
2022/05/28 09:03:54;;;;;;;5.55;2.40;;;13.20;88.40;;;;;;5092626;28;20085;-53
2022/05/28 09:06:43;;;;;;;4.82;2.47;;;13.20;88.20;;;;;;5092117;28;20427;-50
2022/05/28 09:09:55;;;;;;;8.00;2.70;;;13.20;87.30;;;;;;5091746;28;20046;-54
2022/05/28 09:12:47;;;;;;;6.75;2.95;;;13.20;87.90;;;;;;5092691;28;20069;-51
2022/05/28 09:15:33;;;;;;;8.43;2.97;;;13.40;87.60;;;;;;5092730;28;20027;-53
2022/05/28 09:18:19;;;;;;;4.75;2.05;;;13.40;88.00;;;;;;5091839;28;20034;-54
2022/05/28 09:21:07;;;;;;;4.43;2.40;;;13.40;87.40;;;;;;5092433;28;20081;-54
2022/05/28 09:24:02;;;;;;;3.88;2.08;;;13.50;88.00;;;;;;5092904;28;20034;-52
2022/05/28 09:27:25;;;;;;;10.73;2.80;;;13.50;88.80;;;;;;5090864;28;20549;-50
2022/05/28 09:30:19;;;;;;;6.18;2.40;;;13.40;89.50;;;;;;5090659;28;20031;-52
2022/05/28 09:33:35;;;;;;;7.28;2.10;;;13.30;90.00;;;;;;5092508;28;20097;-52
2022/05/28 09:36:40;;;;;;;;;;;13.40;90.50;;;;;;5092809;28;20082;-55
2022/05/28 09:39:52;;;;;;;6.07;2.42;;;13.40;90.40;;;;;;5093061;28;20378;-52
2022/05/28 09:43:02;;;;;;;6.68;2.38;;;13.40;89.10;;;;;;5098719;28;20023;-51
2022/05/28 09:46:04;;;;;;;5.47;2.63;;;13.80;88.60;;;;;;5103105;28;20039;-55
2022/05/28 09:49:21;;;;;;;5.15;2.40;;;13.80;87.70;;;;;;5092606;28;20394;-58
2022/05/28 09:52:10;;;;;;;4.38;2.08;;;13.80;89.20;;;;;;5067789;28;20625;-56
2022/05/28 09:55:21;;;;;;;3.75;1.92;;;14.00;89.50;;;;;;5097123;28;20115;-52
2022/05/28 09:58:05;;;;;;;6.90;2.40;;;13.80;90.20;;;;;;5102825;28;20380;-48
2022/05/28 10:00:50;;;;;;;5.68;2.55;;;13.90;90.40;;;;;;5103407;28;20082;-54
2022/05/28 10:06:51;;;;;;;4.82;1.90;;;14.50;86.60;;;;;;5095882;28;20521;-50
2022/05/28 10:09:48;;;;;;;5.47;2.40;;;14.50;86.30;;;;;;5095999;28;20031;-53
2022/05/28 10:12:32;;;;;;;4.95;2.47;;;14.50;84.80;;;;;;5094972;28;20174;-54
2022/05/28 10:15:24;;;;;;;5.07;2.67;;;14.50;84.90;;;;;;5097389;28;20096;-64
2022/05/28 10:18:12;;;;;;;5.03;2.28;;;14.30;85.90;;;;;;5095425;28;20488;-49
2022/05/28 10:21:32;;;;;;;10.18;2.70;;;14.30;86.30;;;;;;5095374;28;20043;-52
2022/05/28 10:24:19;;;;;;;5.25;2.65;;;14.20;86.30;;;;;;5096158;28;20218;-49
2022/05/28 10:27:04;;;;;;;5.25;2.65;;;14.30;85.50;;;;;;5095957;28;20035;-50
2022/05/28 10:29:50;;;;;;;9.77;2.65;;;14.30;86.60;;;;;;5095677;28;20035;-49
2022/05/28 10:32:44;;;;;;;4.82;2.70;;;14.60;87.00;;;;;;5096080;28;20071;-48
2022/05/28 10:35:31;;;;;;;6.60;2.40;;;14.80;85.50;;;;;;5095109;28;20591;-52
2022/05/28 10:38:22;;;;;;;6.35;3.47;;;14.80;85.10;;;;;;5096204;28;20101;-49
2022/05/28 10:41:17;;;;;;;6.25;2.40;;;14.40;85.00;;;;;;5095787;28;20544;-52
2022/05/28 10:44:01;;;;;;;6.97;3.10;;;14.30;85.80;;;;;;5114324;28;20507;-53
2022/05/28 10:47:02;;;;;;;6.22;2.35;;;14.20;87.20;;;;;;5098124;28;20656;-57
2022/05/28 10:50:05;;;;;;;5.18;2.47;;;14.10;87.10;;;;;;5095970;28;20034;-56
2022/05/28 10:53:11;;;;;;;4.55;2.40;;;14.40;86.20;;;;;;5095256;28;20585;-52
2022/05/28 10:56:07;;;;;;;5.43;2.40;;;14.80;85.10;;;;;;5094654;28;20034;-48
2022/05/28 10:58:51;;;;;;;4.82;2.53;;;15.20;82.80;;;;;;5095208;28;20103;-49
2022/05/28 11:01:48;;;;;;;3.93;2.60;;;15.20;82.30;;;;;;5094528;28;20031;-50
2022/05/28 11:05:11;;;;;;;6.72;2.53;;;15.20;78.70;;;;;;5093928;28;20035;-52
2022/05/28 11:08:12;;;;;;;6.00;2.97;;;15.50;79.70;;;;;;5079595;28;20046;-52
2022/05/28 11:11:08;;;;;;;4.45;2.33;;;15.50;78.50;;;;;;5094680;28;20514;-57
2022/05/28 11:14:30;;;;;;;7.20;2.40;;;15.20;78.10;;;;;;5094961;28;20092;-55
2022/05/28 11:17:36;;;;;;;7.43;2.80;;;15.20;77.30;;;;;;5094533;28;20032;-52
2022/05/28 11:20:37;;;;;;;7.32;2.83;;;15.20;77.40;;;;;;5095025;28;20027;-48
2022/05/28 11:24:00;;;;;;;6.57;2.78;;;15.20;77.30;;;;;;5094940;28;20466;-48
2022/05/28 11:26:58;;;;;;;10.57;2.58;;;15.50;77.30;;;;;;5093931;28;20042;-53
2022/05/28 11:30:04;;;;;;;5.60;2.15;;;15.80;77.10;;;;;;5095532;28;20035;-52
2022/05/28 11:32:58;;;;;;;7.40;2.20;;;15.60;76.10;;;;;;5094493;28;20035;-50
2022/05/28 11:35:58;;;;;;;4.43;2.00;;;15.50;77.30;;;;;;5094365;28;20071;-51
2022/05/28 11:39:08;;;;;;;3.47;2.10;;;15.50;74.70;;;;;;5094594;28;20345;-48
2022/05/28 11:41:59;;;;;;;4.30;2.17;;;15.70;75.00;;;;;;5097406;28;20161;-51
2022/05/28 11:44:50;;;;;;;8.25;2.47;;;15.50;74.80;;;;;;5077333;28;20096;-48
2022/05/28 11:47:45;;;;;;;3.97;2.20;;;15.40;76.20;;;;;;5097312;28;20115;-57
2022/05/28 11:53:54;;;;;;;5.32;2.50;;;15.70;77.60;;;;;;5114970;28;20552;-55
2022/05/28 11:56:38;;;;;;;4.97;2.13;;;15.70;77.90;;;;;;5115565;28;20523;-53
2022/05/28 11:59:26;;;;;;;5.95;2.50;;;15.60;78.30;;;;;;5116034;28;20067;-52
2022/05/28 12:02:23;;;;;;;4.53;2.30;;;15.60;76.80;;;;;;5114975;28;20077;-51
2022/05/28 12:05:23;;;;;;;3.45;2.10;;;15.40;77.80;;;;;;5114607;28;20061;-51
2022/05/28 12:08:17;;;;;;;3.13;1.83;;;15.30;76.70;;;;;;5114497;28;20054;-54
2022/05/28 12:11:29;;;;;;;4.43;2.28;;;15.20;76.90;;;;;;5114270;28;20034;-52
2022/05/28 12:14:26;;;;;;;4.20;2.33;;;15.30;77.00;;;;;;5114074;28;20176;-53
2022/05/28 12:17:19;;;;;;;3.17;1.88;;;15.50;76.30;;;;;;5113024;28;20034;-50
2022/05/28 12:20:10;;;;;;;4.93;2.17;;;15.60;76.70;;;;;;5114513;28;20031;-51
2022/05/28 12:23:00;;;;;;;5.40;2.17;;;15.60;76.10;;;;;;5114320;28;20505;-52
2022/05/28 12:25:44;;;;;;;4.45;1.80;;;15.60;76.70;;;;;;5114018;28;20046;-55
2022/05/28 12:28:44;;;;;;;2.47;1.73;;;15.40;77.20;;;;;;5113986;28;20096;-55
2022/05/28 12:31:28;;;;;;;3.50;2.10;;;15.40;77.40;;;;;;5113078;28;20039;-53
2022/05/28 12:34:25;;;;;;;4.30;2.13;;;15.50;78.50;;;;;;5112707;28;20034;-55
2022/05/28 12:37:17;;;;;;;5.35;2.40;;;15.30;82.10;;;;;;5112026;28;20114;-54
2022/05/28 12:40:26;;;;;;;6.60;2.50;;;15.20;84.00;;;;;;5112788;28;20094;-55
2022/05/28 12:43:19;;;;;;;7.72;2.30;;;15.50;84.10;;;;;;5103790;28;20391;-56
2022/05/28 12:46:19;;;;;;;5.28;2.53;;;15.70;84.20;;;;;;5092916;28;20104;-50
2022/05/28 12:49:28;;;;;;;4.57;2.50;;;15.80;84.90;;;;;;5093384;28;20445;-53
2022/05/28 12:52:39;;;;;;;5.50;2.47;;;16.20;83.90;;;;;;5061853;28;20532;-52
2022/05/28 12:55:35;;;;;;;4.38;2.88;;;16.70;81.20;;;;;;5093063;28;20117;-53
2022/05/28 12:58:22;;;;;;;4.97;2.20;;;16.90;78.80;;;;;;5092232;28;20077;-49
2022/05/28 13:01:26;;;;;;;3.72;2.08;;;16.60;78.50;;;;;;5093335;28;20172;-56
2022/05/28 13:04:17;;;;;;;10.45;2.67;;;16.50;78.20;;;;;;5092570;28;20077;-49
2022/05/28 13:07:03;;;;;;;4.75;2.25;;;16.30;79.20;;;;;;5092917;28;20056;-53
2022/05/28 13:09:50;;;;;;;4.80;2.20;;;16.00;77.60;;;;;;5093704;28;20077;-54
2022/05/28 13:12:50;;;;;;;6.15;2.25;;;16.00;77.20;;;;;;5092130;28;20035;-48
2022/05/28 13:16:01;;;;;;;6.88;2.25;;;16.00;78.20;;;;;;5092605;28;20031;-54
2022/05/28 13:19:21;;;;;;;4.63;2.45;;;16.00;76.70;;;;;;5093286;28;20063;-56
2022/05/28 13:22:32;;;;;;;7.00;2.80;;;15.40;83.50;;;;;;5092863;28;20032;-56
2022/05/28 13:25:28;;;;;;;3.70;2.22;;;14.70;86.40;;;;;;5092377;28;20063;-55
2022/05/28 13:28:26;;;;;;;3.70;2.13;;;14.50;88.20;;;;;;5092636;28;20034;-52
2022/05/28 13:31:13;;;;;;;3.80;2.20;;;14.10;89.70;;;;;;5092382;28;20039;-51
2022/05/28 13:33:58;;;;;;;9.57;2.55;;;13.80;90.20;;;;;;5090867;28;20085;-55
2022/05/28 13:36:46;;;;;;;4.15;2.20;;;13.70;89.60;;;;;;5090198;28;20088;-54
2022/05/28 13:39:32;;;;;;;5.60;2.70;;;13.70;88.60;;;;;;5091021;28;20031;-53
2022/05/28 13:42:19;;;;;;;6.63;2.78;;;13.80;86.70;;;;;;5095059;28;20112;-57
2022/05/28 13:45:05;;;;;;;6.30;2.67;;;13.80;85.40;;;;;;5109977;28;20111;-54
2022/05/28 13:47:50;;;;;;;5.35;3.00;;;13.80;85.70;;;;;;5092871;28;20209;-52
2022/05/28 13:50:38;;;;;;;8.23;2.60;;;13.90;84.70;;;;;;5091560;28;20185;-49
2022/05/28 13:53:26;;;;;;;5.75;2.75;;;13.80;85.00;;;;;;5090758;28;20743;-54
2022/05/28 13:56:17;;;;;;;5.65;2.88;;;13.90;86.20;;;;;;5090777;28;20081;-52
2022/05/28 13:59:01;;;;;;;4.72;2.38;;;14.10;88.00;;;;;;5093070;28;20061;-54
2022/05/28 14:01:49;;;;;;;6.15;2.20;;;13.70;90.40;;;;;;5092350;28;20100;-55
2022/05/28 14:04:42;;;;;;;5.97;2.47;;;13.70;90.40;;;;;;5093899;28;20031;-53
2022/05/28 14:07:41;;;;;;;10.18;2.50;;;13.80;90.40;;;;;;5092733;28;20035;-53
2022/05/28 14:10:26;;;;;;;4.85;2.30;;;13.80;89.40;;;;;;5087632;28;20485;-50
2022/05/28 14:13:42;;;;;;;5.13;2.47;;;14.10;86.60;;;;;;5090593;28;20395;-49
2022/05/28 14:16:41;;;;;;;;;;;14.10;87.40;;;;;;5093274;28;20387;-50
2022/05/28 14:19:37;;;;;;;13.18;2.85;;;15.00;84.20;;;;;;5092924;28;20294;-57
2022/05/28 14:22:43;;;;;;;5.20;2.28;;;15.80;81.50;;;;;;5092401;28;20032;-55
2022/05/28 14:25:32;;;;;;;7.65;2.78;;;16.40;80.00;;;;;;5092362;28;20394;-56
2022/05/28 14:28:18;;;;;;;8.18;2.17;;;16.70;79.50;;;;;;5092482;28;20023;-54
2022/05/28 14:31:02;;;;;;;6.35;2.70;;;16.60;80.40;;;;;;5092251;28;20043;-50
2022/05/28 14:33:52;;;;;;;4.22;2.10;;;16.10;82.40;;;;;;5092916;28;20059;-51
2022/05/28 14:36:38;;;;;;;4.50;2.47;;;15.90;82.30;;;;;;5092061;28;20577;-49
2022/05/28 14:39:23;;;;;;;5.20;2.65;;;15.50;83.10;;;;;;5094196;28;20449;-48
2022/05/28 14:42:09;;;;;;;5.18;2.85;;;15.10;84.00;;;;;;5098745;28;20125;-52
2022/05/28 14:44:53;;;;;;;7.38;2.45;;;15.10;84.80;;;;;;5117532;28;20030;-54
2022/05/28 14:47:38;;;;;;;4.22;2.03;;;14.90;85.10;;;;;;5108918;28;20031;-53